createdAt,value
2017-09-29T00:00:05.792Z,20.50
2017-09-29T00:01:10.478Z,20.40
2017-09-29T00:02:15.258Z,20.50
2017-09-29T00:03:20.216Z,20.50
2017-09-29T00:04:25.003Z,20.40
2017-09-29T00:05:29.891Z,20.50
2017-09-29T00:06:34.673Z,20.50
2017-09-29T00:07:39.579Z,20.50
2017-09-29T00:08:44.445Z,20.50
2017-09-29T00:09:49.190Z,20.50
2017-09-29T00:10:54.134Z,20.50
2017-09-29T00:11:59.053Z,20.40
2017-09-29T00:13:03.861Z,20.40
2017-09-29T00:14:08.811Z,20.50
2017-09-29T00:15:13.734Z,20.50
2017-09-29T00:16:18.546Z,20.50
2017-09-29T00:17:23.354Z,20.40
2017-09-29T00:18:28.150Z,20.40
2017-09-29T00:19:33.121Z,20.40
2017-09-29T00:20:37.936Z,20.50
2017-09-29T00:21:42.653Z,20.40
2017-09-29T00:22:47.404Z,20.40
2017-09-29T00:23:52.149Z,20.50
2017-09-29T00:24:57.085Z,20.50
2017-09-29T00:26:01.963Z,20.40
2017-09-29T00:27:06.839Z,20.50
2017-09-29T00:28:11.737Z,20.50
2017-09-29T00:29:16.406Z,20.50
2017-09-29T00:30:21.285Z,20.40
2017-09-29T00:31:26.025Z,20.40
2017-09-29T00:32:30.761Z,20.40
2017-09-29T00:33:35.648Z,20.40
2017-09-29T00:34:40.568Z,20.40
2017-09-29T00:35:45.195Z,20.40
2017-09-29T00:36:50.093Z,20.40
2017-09-29T00:37:55.072Z,20.40
2017-09-29T00:39:00.034Z,20.40
2017-09-29T00:40:04.880Z,20.40
2017-09-29T00:41:09.677Z,20.40
2017-09-29T00:42:14.553Z,20.40
2017-09-29T00:43:19.308Z,20.40
2017-09-29T00:44:24.109Z,20.40
2017-09-29T00:45:28.814Z,20.40
2017-09-29T00:46:33.669Z,20.40
2017-09-29T00:47:38.407Z,20.40
2017-09-29T00:48:43.170Z,20.40
2017-09-29T00:49:48.127Z,20.40
2017-09-29T00:50:52.916Z,20.40
2017-09-29T00:51:57.738Z,20.40
2017-09-29T00:53:02.377Z,20.40
2017-09-29T00:54:07.331Z,20.40
2017-09-29T00:55:11.957Z,20.40
2017-09-29T00:56:16.807Z,20.40
2017-09-29T00:57:21.651Z,20.40
2017-09-29T00:58:26.392Z,20.40
2017-09-29T00:59:31.024Z,20.40
2017-09-29T01:00:35.774Z,20.40
2017-09-29T01:01:40.518Z,20.40
2017-09-29T01:02:45.195Z,20.40
2017-09-29T01:03:49.840Z,20.40
2017-09-29T01:04:54.557Z,20.40
2017-09-29T01:05:59.142Z,20.40
2017-09-29T01:07:03.860Z,20.40
2017-09-29T01:08:08.443Z,20.40
2017-09-29T01:09:13.406Z,20.40
2017-09-29T01:10:18.320Z,20.40
2017-09-29T01:11:23.121Z,20.40
2017-09-29T01:12:27.769Z,20.40
2017-09-29T01:13:32.737Z,20.40
2017-09-29T01:14:37.760Z,20.40
2017-09-29T01:15:42.528Z,20.40
2017-09-29T01:16:47.392Z,20.40
2017-09-29T01:17:52.237Z,20.40
2017-09-29T01:18:56.973Z,20.40
2017-09-29T01:20:01.854Z,20.40
2017-09-29T01:21:06.469Z,20.40
2017-09-29T01:22:11.256Z,20.40
2017-09-29T01:23:16.011Z,20.40
2017-09-29T01:24:20.854Z,20.40
2017-09-29T01:25:25.674Z,20.40
2017-09-29T01:26:30.611Z,20.40
2017-09-29T01:27:35.376Z,20.40
2017-09-29T01:28:40.322Z,20.40
2017-09-29T01:29:45.178Z,20.40
2017-09-29T01:30:49.742Z,20.40
2017-09-29T01:31:54.497Z,20.40
2017-09-29T01:32:59.226Z,20.40
2017-09-29T01:34:03.950Z,20.40
2017-09-29T01:35:08.902Z,20.40
2017-09-29T01:36:13.614Z,20.40
2017-09-29T01:37:18.409Z,20.40
2017-09-29T01:38:23.021Z,20.40
2017-09-29T01:39:27.844Z,20.40
2017-09-29T01:40:32.752Z,20.40
2017-09-29T01:41:37.539Z,20.40
2017-09-29T01:42:42.433Z,20.40
2017-09-29T01:43:47.308Z,20.40
2017-09-29T01:44:51.942Z,20.40
2017-09-29T01:45:56.626Z,20.40
2017-09-29T01:47:01.549Z,20.40
2017-09-29T01:48:06.274Z,20.40
2017-09-29T01:49:11.074Z,20.40
2017-09-29T01:50:15.853Z,20.40
2017-09-29T01:51:20.628Z,20.40
2017-09-29T01:52:25.399Z,20.40
2017-09-29T01:53:29.991Z,20.40
2017-09-29T01:54:34.750Z,20.40
2017-09-29T01:55:39.498Z,20.40
2017-09-29T01:56:44.065Z,20.40
2017-09-29T01:57:48.624Z,20.40
2017-09-29T01:58:53.494Z,20.40
2017-09-29T01:59:58.417Z,20.40
2017-09-29T02:01:03.336Z,20.40
2017-09-29T02:02:08.126Z,20.30
2017-09-29T02:03:12.897Z,20.40
2017-09-29T02:04:17.813Z,20.40
2017-09-29T02:05:22.836Z,20.40
2017-09-29T02:06:27.569Z,20.40
2017-09-29T02:07:32.219Z,20.40
2017-09-29T02:08:36.913Z,20.40
2017-09-29T02:09:41.735Z,20.40
2017-09-29T02:10:46.650Z,20.40
2017-09-29T02:11:51.750Z,20.40
2017-09-29T02:12:56.363Z,20.40
2017-09-29T02:14:01.111Z,20.40
2017-09-29T02:15:05.882Z,20.40
2017-09-29T02:16:10.707Z,20.40
2017-09-29T02:17:15.647Z,20.40
2017-09-29T02:18:20.227Z,20.40
2017-09-29T02:19:24.812Z,20.40
2017-09-29T02:20:29.574Z,20.40
2017-09-29T02:21:34.413Z,20.40
2017-09-29T02:22:39.454Z,20.40
2017-09-29T02:23:44.343Z,20.40
2017-09-29T02:24:49.119Z,20.40
2017-09-29T02:25:53.898Z,20.40
2017-09-29T02:26:58.788Z,20.40
2017-09-29T02:28:03.498Z,20.30
2017-09-29T02:29:08.207Z,20.40
2017-09-29T02:30:12.988Z,20.40
2017-09-29T02:31:17.710Z,20.40
2017-09-29T02:32:22.430Z,20.30
2017-09-29T02:33:27.130Z,20.30
2017-09-29T02:34:31.875Z,20.30
2017-09-29T02:35:36.501Z,20.40
2017-09-29T02:36:41.386Z,20.30
2017-09-29T02:37:46.042Z,20.30
2017-09-29T02:38:50.739Z,20.30
2017-09-29T02:39:55.297Z,20.40
2017-09-29T02:41:00.045Z,20.30
2017-09-29T02:42:04.837Z,20.40
2017-09-29T02:43:09.662Z,20.30
2017-09-29T02:44:14.611Z,20.30
2017-09-29T02:45:19.534Z,20.30
2017-09-29T02:46:24.311Z,20.30
2017-09-29T02:47:28.929Z,20.30
2017-09-29T02:48:33.543Z,20.40
2017-09-29T02:49:38.329Z,20.30
2017-09-29T02:50:43.060Z,20.30
2017-09-29T02:51:48.007Z,20.30
2017-09-29T02:52:52.788Z,20.30
2017-09-29T02:53:57.387Z,20.30
2017-09-29T02:55:02.128Z,20.40
2017-09-29T02:56:06.977Z,20.30
2017-09-29T02:57:11.786Z,20.30
2017-09-29T02:58:16.565Z,20.30
2017-09-29T02:59:21.346Z,20.30
2017-09-29T03:00:26.240Z,20.30
2017-09-29T03:01:31.062Z,20.30
2017-09-29T03:02:35.821Z,20.30
2017-09-29T03:03:40.716Z,20.30
2017-09-29T03:04:45.345Z,20.30
2017-09-29T03:05:50.181Z,20.30
2017-09-29T03:06:54.986Z,20.30
2017-09-29T03:07:59.820Z,20.30
2017-09-29T03:09:04.661Z,20.30
2017-09-29T03:10:09.242Z,20.30
2017-09-29T03:11:13.887Z,20.30
2017-09-29T03:12:18.484Z,20.30
2017-09-29T03:13:23.485Z,20.30
2017-09-29T03:14:28.424Z,20.30
2017-09-29T03:15:32.971Z,20.30
2017-09-29T03:16:37.756Z,20.30
2017-09-29T03:17:42.684Z,20.30
2017-09-29T03:18:47.491Z,20.30
2017-09-29T03:19:52.083Z,20.30
2017-09-29T03:20:56.970Z,20.30
2017-09-29T03:22:01.727Z,20.30
2017-09-29T03:23:06.420Z,20.30
2017-09-29T03:24:11.020Z,20.30
2017-09-29T03:25:15.571Z,20.30
2017-09-29T03:26:20.497Z,20.30
2017-09-29T03:27:25.687Z,20.30
2017-09-29T03:28:30.972Z,20.30
2017-09-29T03:29:35.817Z,20.40
2017-09-29T03:30:41.668Z,20.30
2017-09-29T03:31:46.892Z,20.30
2017-09-29T03:32:52.017Z,20.30
2017-09-29T03:33:57.078Z,20.30
2017-09-29T03:35:02.214Z,20.30
2017-09-29T03:36:07.208Z,20.40
2017-09-29T03:37:12.476Z,20.30
2017-09-29T03:38:17.468Z,20.30
2017-09-29T03:39:22.570Z,20.40
2017-09-29T03:40:28.063Z,20.40
2017-09-29T03:41:33.133Z,20.40
2017-09-29T03:42:38.430Z,20.40
2017-09-29T03:43:43.397Z,20.40
2017-09-29T03:44:49.790Z,20.40
2017-09-29T03:45:54.931Z,20.40
2017-09-29T03:47:00.020Z,20.40
2017-09-29T03:48:05.637Z,20.30
2017-09-29T03:49:11.407Z,20.30
2017-09-29T03:50:16.682Z,20.40
2017-09-29T03:51:21.829Z,20.40
2017-09-29T03:52:26.891Z,20.30
2017-09-29T03:53:31.920Z,20.40
2017-09-29T03:54:36.880Z,20.30
2017-09-29T03:55:41.975Z,20.40
2017-09-29T03:56:47.411Z,20.40
2017-09-29T03:57:52.515Z,20.40
2017-09-29T03:58:57.659Z,20.30
2017-09-29T04:00:02.897Z,20.40
2017-09-29T04:01:08.157Z,20.30
2017-09-29T04:02:13.143Z,20.30
2017-09-29T04:03:18.226Z,20.30
2017-09-29T04:04:23.452Z,20.30
2017-09-29T04:05:28.684Z,20.40
2017-09-29T04:06:33.729Z,20.40
2017-09-29T04:07:38.923Z,20.30
2017-09-29T04:08:43.910Z,20.30
2017-09-29T04:09:49.094Z,20.30
2017-09-29T04:10:54.242Z,20.40
2017-09-29T04:11:59.515Z,20.30
2017-09-29T04:13:04.687Z,20.30
2017-09-29T04:14:09.778Z,20.30
2017-09-29T04:15:14.788Z,20.30
2017-09-29T04:16:19.814Z,20.30
2017-09-29T04:17:25.088Z,20.30
2017-09-29T04:18:30.914Z,20.30
2017-09-29T04:19:36.422Z,20.30
2017-09-29T04:20:41.421Z,20.30
2017-09-29T04:21:48.123Z,20.30
2017-09-29T04:22:53.120Z,20.30
2017-09-29T04:23:58.487Z,20.30
2017-09-29T04:25:03.816Z,20.30
2017-09-29T04:26:09.266Z,20.30
2017-09-29T04:27:14.621Z,20.30
2017-09-29T04:28:19.998Z,20.30
2017-09-29T04:29:25.262Z,20.30
2017-09-29T04:30:30.655Z,20.30
2017-09-29T04:31:35.721Z,20.30
2017-09-29T04:32:40.894Z,20.30
2017-09-29T04:33:46.282Z,20.30
2017-09-29T04:34:51.365Z,20.30
2017-09-29T04:35:56.440Z,20.30
2017-09-29T04:37:01.595Z,20.30
2017-09-29T04:38:06.615Z,20.30
2017-09-29T04:39:11.612Z,20.30
2017-09-29T04:40:16.978Z,20.30
2017-09-29T04:41:22.180Z,20.30
2017-09-29T04:42:27.254Z,20.30
2017-09-29T04:43:32.242Z,20.30
2017-09-29T04:44:37.230Z,20.30
2017-09-29T04:45:43.267Z,20.30
2017-09-29T04:46:48.190Z,20.30
2017-09-29T04:47:53.106Z,20.30
2017-09-29T04:48:58.255Z,20.30
2017-09-29T04:50:03.340Z,20.30
2017-09-29T04:51:08.451Z,20.30
2017-09-29T04:52:13.521Z,20.30
2017-09-29T04:53:18.948Z,20.30
2017-09-29T04:54:25.710Z,20.30
2017-09-29T04:55:32.186Z,20.30
2017-09-29T04:56:37.726Z,20.30
2017-09-29T04:57:42.780Z,20.30
2017-09-29T04:58:47.771Z,20.30
2017-09-29T04:59:52.953Z,20.30
2017-09-29T05:00:58.235Z,20.30
2017-09-29T05:02:03.571Z,20.30
2017-09-29T05:03:08.859Z,20.30
2017-09-29T05:04:14.031Z,20.30
2017-09-29T05:05:19.245Z,20.30
2017-09-29T05:06:24.104Z,20.30
2017-09-29T05:07:29.143Z,20.30
2017-09-29T05:08:34.561Z,20.30
2017-09-29T05:09:39.840Z,20.30
2017-09-29T05:10:45.251Z,20.30
2017-09-29T05:11:50.741Z,20.40
2017-09-29T05:12:56.210Z,20.30
2017-09-29T05:14:01.954Z,20.30
2017-09-29T05:15:07.624Z,20.30
2017-09-29T05:16:13.146Z,20.30
2017-09-29T05:17:18.470Z,20.30
2017-09-29T05:18:23.570Z,20.30
2017-09-29T05:19:28.807Z,20.40
2017-09-29T05:20:33.922Z,20.30
2017-09-29T05:21:39.718Z,20.40
2017-09-29T05:22:45.138Z,20.40
2017-09-29T05:23:50.866Z,20.40
2017-09-29T05:24:56.308Z,20.40
2017-09-29T05:26:03.100Z,20.40
2017-09-29T05:27:08.660Z,20.30
2017-09-29T05:28:14.346Z,20.40
2017-09-29T05:29:19.520Z,20.40
2017-09-29T05:30:25.010Z,20.40
2017-09-29T05:31:32.303Z,20.40
2017-09-29T05:32:37.931Z,20.40
2017-09-29T05:33:43.466Z,20.40
2017-09-29T05:34:48.613Z,20.40
2017-09-29T05:35:53.956Z,20.40
2017-09-29T05:36:59.479Z,20.40
2017-09-29T05:38:05.307Z,20.40
2017-09-29T05:39:10.494Z,20.40
2017-09-29T05:40:15.945Z,20.40
2017-09-29T05:41:23.075Z,20.40
2017-09-29T05:42:29.180Z,20.50
2017-09-29T05:43:34.976Z,20.40
2017-09-29T05:44:40.639Z,20.40
2017-09-29T05:45:46.393Z,20.40
2017-09-29T05:46:52.099Z,20.50
2017-09-29T05:47:57.358Z,20.50
2017-09-29T05:49:03.139Z,20.40
2017-09-29T05:50:08.665Z,20.40
2017-09-29T05:51:14.415Z,20.40
2017-09-29T05:52:19.878Z,20.50
2017-09-29T05:53:25.502Z,20.40
2017-09-29T05:54:31.038Z,20.40
2017-09-29T05:55:36.633Z,20.50
2017-09-29T05:56:42.995Z,20.40
2017-09-29T05:57:48.379Z,20.50
2017-09-29T05:58:54.024Z,20.40
2017-09-29T06:00:00.354Z,20.40
2017-09-29T06:01:05.674Z,20.40
2017-09-29T06:02:11.624Z,20.50
2017-09-29T06:03:18.404Z,20.40
2017-09-29T06:04:24.531Z,20.40
2017-09-29T06:05:30.310Z,20.50
2017-09-29T06:06:37.419Z,20.50
2017-09-29T06:07:43.062Z,20.40
2017-09-29T06:08:48.432Z,20.40
2017-09-29T06:09:53.808Z,20.40
2017-09-29T06:10:59.159Z,20.40
2017-09-29T06:12:04.710Z,20.30
2017-09-29T06:13:10.275Z,20.40
2017-09-29T06:14:15.830Z,20.40
2017-09-29T06:15:21.845Z,20.40
2017-09-29T06:16:27.506Z,20.40
2017-09-29T06:17:33.091Z,20.40
2017-09-29T06:18:39.682Z,20.30
2017-09-29T06:19:45.523Z,20.30
2017-09-29T06:20:51.478Z,20.30
2017-09-29T06:21:57.467Z,20.30
2017-09-29T06:23:03.246Z,20.30
2017-09-29T06:24:08.653Z,20.30
2017-09-29T06:25:14.283Z,20.30
2017-09-29T06:26:19.755Z,20.20
2017-09-29T06:27:24.756Z,20.30
2017-09-29T06:28:30.022Z,20.20
2017-09-29T06:29:35.546Z,20.20
2017-09-29T06:30:41.225Z,20.20
2017-09-29T06:31:47.134Z,20.10
2017-09-29T06:32:52.813Z,20.10
2017-09-29T06:33:58.347Z,20.10
2017-09-29T06:35:04.050Z,20.10
2017-09-29T06:36:09.840Z,20.10
2017-09-29T06:37:15.640Z,20.20
2017-09-29T06:38:20.746Z,20.10
2017-09-29T06:39:26.109Z,20.20
2017-09-29T06:40:31.631Z,20.20
2017-09-29T06:41:37.059Z,20.10
2017-09-29T06:42:43.257Z,20.10
2017-09-29T06:43:48.877Z,20.10
2017-09-29T06:44:54.496Z,20.10
2017-09-29T06:46:00.266Z,20.10
2017-09-29T06:47:05.948Z,20.20
2017-09-29T06:48:11.129Z,20.20
2017-09-29T06:49:16.397Z,20.20
2017-09-29T06:50:21.508Z,20.20
2017-09-29T06:51:27.215Z,20.10
2017-09-29T06:52:33.128Z,20.10
2017-09-29T06:53:38.985Z,20.10
2017-09-29T06:54:45.284Z,20.20
2017-09-29T06:55:51.100Z,20.20
2017-09-29T06:56:56.974Z,20.20
2017-09-29T06:58:02.820Z,20.30
2017-09-29T06:59:08.087Z,20.30
2017-09-29T07:00:13.244Z,20.30
2017-09-29T07:01:19.243Z,20.30
2017-09-29T07:02:25.307Z,20.30
2017-09-29T07:03:31.058Z,20.30
2017-09-29T07:04:36.927Z,20.30
2017-09-29T07:05:42.931Z,20.30
2017-09-29T07:06:48.644Z,20.30
2017-09-29T07:07:53.995Z,20.40
2017-09-29T07:08:59.027Z,20.30
2017-09-29T07:10:04.126Z,20.30
2017-09-29T07:11:09.605Z,20.30
2017-09-29T07:12:15.363Z,20.30
2017-09-29T07:13:23.060Z,20.30
2017-09-29T07:14:28.800Z,20.40
2017-09-29T07:15:34.519Z,20.30
2017-09-29T07:16:39.686Z,20.30
2017-09-29T07:17:45.614Z,20.40
2017-09-29T07:18:50.744Z,20.40
2017-09-29T07:19:56.857Z,20.40
2017-09-29T07:21:02.029Z,20.40
2017-09-29T07:22:07.339Z,20.40
2017-09-29T07:23:12.727Z,20.40
2017-09-29T07:24:17.995Z,20.40
2017-09-29T07:25:23.161Z,20.40
2017-09-29T07:26:28.345Z,20.40
2017-09-29T07:27:33.480Z,20.40
2017-09-29T07:28:40.315Z,20.40
2017-09-29T07:29:45.342Z,20.30
2017-09-29T07:30:50.668Z,20.30
2017-09-29T07:31:56.517Z,20.20
2017-09-29T07:33:01.521Z,20.20
2017-09-29T07:34:06.728Z,20.30
2017-09-29T07:35:11.761Z,20.30
2017-09-29T07:36:17.146Z,20.30
2017-09-29T07:37:22.502Z,20.30
2017-09-29T07:38:27.613Z,20.20
2017-09-29T07:39:32.887Z,20.20
2017-09-29T07:40:38.114Z,20.20
2017-09-29T07:41:43.622Z,20.10
2017-09-29T07:42:48.924Z,20.10
2017-09-29T07:43:54.181Z,20.10
2017-09-29T07:44:59.487Z,20.10
2017-09-29T07:46:05.081Z,20.10
2017-09-29T07:47:10.392Z,20.10
2017-09-29T07:48:15.694Z,20.10
2017-09-29T07:49:21.054Z,20.10
2017-09-29T07:50:26.476Z,20.10
2017-09-29T07:51:31.773Z,20.10
2017-09-29T07:52:37.122Z,20.10
2017-09-29T07:53:42.263Z,20.10
2017-09-29T07:54:47.464Z,20.10
2017-09-29T07:55:52.708Z,20.10
2017-09-29T07:56:58.071Z,20.20
2017-09-29T07:58:03.768Z,20.20
2017-09-29T07:59:09.040Z,20.20
2017-09-29T08:00:14.360Z,20.20
2017-09-29T08:01:19.803Z,20.20
2017-09-29T08:02:26.238Z,20.20
2017-09-29T08:03:31.402Z,20.20
2017-09-29T08:04:36.254Z,20.20
2017-09-29T08:05:41.930Z,20.20
2017-09-29T08:06:47.170Z,20.10
2017-09-29T08:07:52.153Z,20.00
2017-09-29T08:08:57.331Z,19.90
2017-09-29T08:10:02.629Z,19.90
2017-09-29T08:11:07.756Z,20.00
2017-09-29T08:12:13.054Z,20.00
2017-09-29T08:13:17.913Z,20.00
2017-09-29T08:14:23.522Z,20.00
2017-09-29T08:15:29.114Z,20.10
2017-09-29T08:16:34.460Z,20.10
2017-09-29T08:17:39.655Z,20.10
2017-09-29T08:18:45.146Z,20.10
2017-09-29T08:19:50.300Z,20.10
2017-09-29T08:20:56.023Z,20.10
2017-09-29T08:22:02.922Z,20.20
2017-09-29T08:23:08.787Z,20.20
2017-09-29T08:24:14.697Z,20.20
2017-09-29T08:25:20.681Z,20.20
2017-09-29T08:26:26.915Z,20.20
2017-09-29T08:27:34.089Z,20.20
2017-09-29T08:28:39.693Z,20.20
2017-09-29T08:29:45.383Z,20.30
2017-09-29T08:30:51.089Z,20.20
2017-09-29T08:31:56.574Z,20.30
2017-09-29T08:33:15.821Z,20.20
2017-09-29T08:34:21.546Z,20.20
2017-09-29T08:35:27.082Z,20.20
2017-09-29T08:36:32.737Z,20.20
2017-09-29T08:37:38.464Z,20.20
2017-09-29T08:38:44.299Z,20.20
2017-09-29T08:39:49.872Z,20.20
2017-09-29T08:40:55.383Z,20.20
2017-09-29T08:42:01.202Z,20.20
2017-09-29T08:43:06.885Z,20.20
2017-09-29T08:44:12.302Z,20.20
2017-09-29T08:45:18.070Z,20.20
2017-09-29T08:46:24.054Z,20.30
2017-09-29T08:47:29.407Z,20.30
2017-09-29T08:48:36.984Z,20.20
2017-09-29T08:49:42.256Z,20.30
2017-09-29T08:50:47.247Z,20.30
2017-09-29T08:51:52.783Z,20.30
2017-09-29T08:52:58.215Z,20.30
2017-09-29T08:54:03.432Z,20.30
2017-09-29T08:55:09.364Z,20.30
2017-09-29T08:56:14.798Z,20.30
2017-09-29T08:57:20.103Z,20.30
2017-09-29T08:58:25.413Z,20.30
2017-09-29T08:59:30.386Z,20.30
2017-09-29T09:00:35.953Z,20.30
2017-09-29T09:01:42.142Z,20.30
2017-09-29T09:02:47.672Z,20.30
2017-09-29T09:03:54.703Z,20.40
2017-09-29T09:05:00.064Z,20.30
2017-09-29T09:06:05.661Z,20.40
2017-09-29T09:07:11.155Z,20.40
2017-09-29T09:08:16.516Z,20.40
2017-09-29T09:09:21.715Z,20.40
2017-09-29T09:10:27.089Z,20.40
2017-09-29T09:11:32.293Z,20.50
2017-09-29T09:12:37.583Z,20.50
2017-09-29T09:13:44.306Z,20.50
2017-09-29T09:14:49.706Z,20.50
2017-09-29T09:15:55.095Z,20.50
2017-09-29T09:17:00.619Z,20.50
2017-09-29T09:18:06.903Z,20.50
2017-09-29T09:19:13.011Z,20.50
2017-09-29T09:20:18.918Z,20.50
2017-09-29T09:21:24.698Z,20.50
2017-09-29T09:22:30.474Z,20.50
2017-09-29T09:23:36.317Z,20.50
2017-09-29T09:24:41.598Z,20.50
2017-09-29T09:25:50.058Z,20.50
2017-09-29T09:26:56.804Z,20.60
2017-09-29T09:28:04.832Z,20.60
2017-09-29T09:29:11.679Z,20.60
2017-09-29T09:30:18.618Z,20.60
2017-09-29T09:31:26.345Z,20.60
2017-09-29T09:32:34.641Z,20.70
2017-09-29T09:33:40.136Z,20.70
2017-09-29T09:34:45.315Z,20.70
2017-09-29T09:35:50.582Z,20.70
2017-09-29T09:36:55.619Z,20.70
2017-09-29T09:38:01.112Z,20.70
2017-09-29T09:39:06.806Z,20.70
2017-09-29T09:40:11.974Z,20.70
2017-09-29T09:41:17.205Z,20.70
2017-09-29T09:42:22.403Z,20.70
2017-09-29T09:43:27.813Z,20.80
2017-09-29T09:44:33.478Z,20.70
2017-09-29T09:45:38.630Z,20.80
2017-09-29T09:46:43.773Z,20.80
2017-09-29T09:47:48.989Z,20.80
2017-09-29T09:48:54.403Z,20.80
2017-09-29T09:49:59.741Z,20.80
2017-09-29T09:51:04.997Z,20.90
2017-09-29T09:52:10.271Z,20.90
2017-09-29T09:53:15.540Z,20.90
2017-09-29T09:54:20.664Z,20.90
2017-09-29T09:55:25.762Z,20.90
2017-09-29T09:56:30.891Z,20.90
2017-09-29T09:57:35.929Z,21.00
2017-09-29T09:58:40.984Z,20.90
2017-09-29T09:59:46.545Z,21.00
2017-09-29T10:00:51.620Z,20.90
2017-09-29T10:01:56.963Z,20.90
2017-09-29T10:03:02.473Z,21.00
2017-09-29T10:04:07.435Z,21.00
2017-09-29T10:05:12.377Z,21.00
2017-09-29T10:06:17.876Z,21.00
2017-09-29T10:07:23.105Z,21.00
2017-09-29T10:08:28.379Z,21.00
2017-09-29T10:09:33.787Z,21.00
2017-09-29T10:10:39.349Z,21.00
2017-09-29T10:11:44.513Z,21.00
2017-09-29T10:12:50.028Z,21.00
2017-09-29T10:13:55.446Z,21.00
2017-09-29T10:15:00.855Z,21.00
2017-09-29T10:16:06.444Z,21.00
2017-09-29T10:17:13.024Z,21.00
2017-09-29T10:18:18.072Z,21.00
2017-09-29T10:19:23.291Z,21.10
2017-09-29T10:20:28.380Z,21.10
2017-09-29T10:21:34.044Z,21.10
2017-09-29T10:22:39.590Z,21.10
2017-09-29T10:23:44.778Z,21.10
2017-09-29T10:24:50.055Z,21.10
2017-09-29T10:25:55.710Z,21.10
2017-09-29T10:27:01.011Z,21.10
2017-09-29T10:28:06.391Z,21.10
2017-09-29T10:29:13.216Z,21.10
2017-09-29T10:30:18.754Z,21.10
2017-09-29T10:31:24.008Z,21.00
2017-09-29T10:32:29.607Z,21.00
2017-09-29T10:33:34.898Z,21.00
2017-09-29T10:34:40.317Z,21.00
2017-09-29T10:35:45.342Z,21.00
2017-09-29T10:36:50.708Z,21.00
2017-09-29T10:37:56.363Z,21.00
2017-09-29T10:39:01.908Z,21.00
2017-09-29T10:40:06.954Z,21.00
2017-09-29T10:41:12.759Z,21.00
2017-09-29T10:42:18.310Z,21.00
2017-09-29T10:43:23.549Z,21.00
2017-09-29T10:44:29.171Z,21.00
2017-09-29T10:45:34.406Z,21.00
2017-09-29T10:46:39.849Z,21.00
2017-09-29T10:47:45.533Z,21.00
2017-09-29T10:48:50.971Z,21.00
2017-09-29T10:49:56.238Z,21.00
2017-09-29T10:51:01.411Z,21.00
2017-09-29T10:52:06.799Z,21.10
2017-09-29T10:53:12.099Z,21.10
2017-09-29T10:54:19.189Z,21.10
2017-09-29T10:55:24.251Z,21.10
2017-09-29T10:56:29.782Z,21.10
2017-09-29T10:57:35.060Z,21.10
2017-09-29T10:58:41.456Z,21.10
2017-09-29T10:59:47.420Z,21.10
2017-09-29T11:00:52.859Z,21.10
2017-09-29T11:01:58.489Z,21.10
2017-09-29T11:03:04.129Z,21.20
2017-09-29T11:04:09.451Z,21.20
2017-09-29T11:05:15.113Z,21.20
2017-09-29T11:06:20.907Z,21.20
2017-09-29T11:07:26.854Z,21.20
2017-09-29T11:08:31.759Z,21.20
2017-09-29T11:09:37.079Z,21.20
2017-09-29T11:10:42.261Z,21.20
2017-09-29T11:11:47.684Z,21.20
2017-09-29T11:12:53.182Z,21.20
2017-09-29T11:13:58.640Z,21.20
2017-09-29T11:15:04.415Z,21.20
2017-09-29T11:16:09.888Z,21.20
2017-09-29T11:17:15.675Z,21.30
2017-09-29T11:18:20.881Z,21.30
2017-09-29T11:19:26.380Z,21.30
2017-09-29T11:20:31.362Z,21.30
2017-09-29T11:21:36.573Z,21.30
2017-09-29T11:22:41.796Z,21.30
2017-09-29T11:23:47.495Z,21.30
2017-09-29T11:24:53.031Z,21.30
2017-09-29T11:25:58.909Z,21.30
2017-09-29T11:27:04.625Z,21.30
2017-09-29T11:28:10.275Z,21.30
2017-09-29T11:29:15.686Z,21.30
2017-09-29T11:30:21.265Z,21.30
2017-09-29T11:31:26.559Z,21.30
2017-09-29T11:32:31.676Z,21.30
2017-09-29T11:33:37.293Z,21.30
2017-09-29T11:34:43.770Z,21.30
2017-09-29T11:35:49.259Z,21.30
2017-09-29T11:36:55.088Z,21.30
2017-09-29T11:38:01.267Z,21.30
2017-09-29T11:39:06.865Z,21.30
2017-09-29T11:40:12.763Z,21.40
2017-09-29T11:41:18.632Z,21.40
2017-09-29T11:42:24.325Z,21.40
2017-09-29T11:43:30.263Z,21.40
2017-09-29T11:44:35.783Z,21.40
2017-09-29T11:45:41.439Z,21.40
2017-09-29T11:46:47.313Z,21.40
2017-09-29T11:47:53.137Z,21.40
2017-09-29T11:48:59.020Z,21.40
2017-09-29T11:50:04.999Z,21.50
2017-09-29T11:51:10.751Z,21.50
2017-09-29T11:52:16.532Z,21.50
2017-09-29T11:53:22.581Z,21.50
2017-09-29T11:54:28.340Z,21.60
2017-09-29T11:55:34.082Z,21.60
2017-09-29T11:56:39.637Z,21.60
2017-09-29T11:57:47.600Z,21.60
2017-09-29T11:58:53.606Z,21.60
2017-09-29T11:59:59.465Z,21.60
2017-09-29T12:01:04.667Z,21.70
2017-09-29T12:02:10.372Z,21.70
2017-09-29T12:03:15.739Z,21.70
2017-09-29T12:04:22.928Z,21.70
2017-09-29T12:05:28.594Z,21.70
2017-09-29T12:06:34.214Z,21.70
2017-09-29T12:07:39.863Z,21.70
2017-09-29T12:08:45.528Z,21.80
2017-09-29T12:09:51.741Z,21.80
2017-09-29T12:10:57.671Z,21.80
2017-09-29T12:12:03.275Z,21.80
2017-09-29T12:13:09.702Z,21.80
2017-09-29T12:14:15.198Z,21.80
2017-09-29T12:15:21.860Z,21.80
2017-09-29T12:16:32.622Z,21.80
2017-09-29T12:17:39.338Z,21.80
2017-09-29T12:18:45.273Z,21.80
2017-09-29T12:19:53.790Z,21.90
2017-09-29T12:20:59.757Z,21.90
2017-09-29T12:22:05.538Z,21.90
2017-09-29T12:23:10.753Z,21.90
2017-09-29T12:24:16.177Z,21.90
2017-09-29T12:25:21.656Z,21.90
2017-09-29T12:26:27.070Z,22.00
2017-09-29T12:27:33.023Z,22.00
2017-09-29T12:28:38.806Z,22.00
2017-09-29T12:29:47.478Z,22.00
2017-09-29T12:30:53.359Z,22.10
2017-09-29T12:31:59.336Z,22.10
2017-09-29T12:33:04.519Z,22.10
2017-09-29T12:34:09.975Z,22.10
2017-09-29T12:35:15.541Z,22.10
2017-09-29T12:36:21.415Z,22.10
2017-09-29T12:37:27.156Z,22.10
2017-09-29T12:38:32.716Z,22.10
2017-09-29T12:39:38.137Z,22.10
2017-09-29T12:40:44.485Z,22.10
2017-09-29T12:41:50.093Z,22.10
2017-09-29T12:42:55.907Z,22.10
2017-09-29T12:44:01.346Z,22.10
2017-09-29T12:45:06.844Z,22.10
2017-09-29T12:46:12.180Z,22.20
2017-09-29T12:47:19.327Z,22.20
2017-09-29T12:48:25.407Z,22.20
2017-09-29T12:49:30.745Z,22.20
2017-09-29T12:50:36.229Z,22.20
2017-09-29T12:51:41.579Z,22.30
2017-09-29T12:52:47.027Z,22.30
2017-09-29T12:53:52.368Z,22.30
2017-09-29T12:54:58.691Z,22.30
2017-09-29T12:56:05.478Z,22.40
2017-09-29T12:57:11.005Z,22.40
2017-09-29T12:58:16.404Z,22.40
2017-09-29T12:59:22.122Z,22.40
2017-09-29T13:00:28.689Z,22.30
2017-09-29T13:01:34.505Z,22.30
2017-09-29T13:02:40.426Z,22.30
2017-09-29T13:03:45.831Z,22.30
2017-09-29T13:04:51.406Z,22.40
2017-09-29T13:05:57.003Z,22.40
2017-09-29T13:07:02.469Z,22.40
2017-09-29T13:08:07.649Z,22.40
2017-09-29T13:09:12.973Z,22.40
2017-09-29T13:10:19.131Z,22.40
2017-09-29T13:11:25.552Z,22.40
2017-09-29T13:12:30.474Z,22.40
2017-09-29T13:13:36.182Z,22.40
2017-09-29T13:14:41.430Z,22.40
2017-09-29T13:15:47.198Z,22.40
2017-09-29T13:16:52.494Z,22.50
2017-09-29T13:17:59.048Z,22.50
2017-09-29T13:19:03.938Z,22.50
2017-09-29T13:20:09.317Z,22.50
2017-09-29T13:21:17.801Z,22.50
2017-09-29T13:22:23.071Z,22.50
2017-09-29T13:23:28.139Z,22.50
2017-09-29T13:24:36.498Z,22.50
2017-09-29T13:25:42.208Z,22.50
2017-09-29T13:26:47.773Z,22.50
2017-09-29T13:27:53.378Z,22.40
2017-09-29T13:28:58.921Z,22.40
2017-09-29T13:30:04.512Z,22.40
2017-09-29T13:31:10.314Z,22.40
2017-09-29T13:32:15.804Z,22.40
2017-09-29T13:33:22.121Z,22.40
2017-09-29T13:34:28.449Z,22.40
2017-09-29T13:35:35.426Z,22.40
2017-09-29T13:36:41.255Z,22.40
2017-09-29T13:37:46.406Z,22.40
2017-09-29T13:38:51.812Z,22.30
2017-09-29T13:39:57.130Z,22.40
2017-09-29T13:41:02.849Z,22.40
2017-09-29T13:42:08.453Z,22.40
2017-09-29T13:43:14.315Z,22.40
2017-09-29T13:44:19.494Z,22.40
2017-09-29T13:45:25.063Z,22.40
2017-09-29T13:46:30.622Z,22.40
2017-09-29T13:47:37.204Z,22.40
2017-09-29T13:48:42.814Z,22.30
2017-09-29T13:49:49.450Z,22.40
2017-09-29T13:50:55.349Z,22.40
2017-09-29T13:52:01.567Z,22.40
2017-09-29T13:53:06.880Z,22.40
2017-09-29T13:54:12.022Z,22.40
2017-09-29T13:55:17.215Z,22.40
2017-09-29T13:56:22.481Z,22.40
2017-09-29T13:57:27.559Z,22.40
2017-09-29T13:58:32.800Z,22.40
2017-09-29T13:59:40.938Z,22.40
2017-09-29T14:00:46.145Z,22.30
2017-09-29T14:01:51.212Z,22.30